Uitgeest, Netherlands
Current Conditions -  °F | °C
As of 12:25 PM on Wednesday 26 Nov 2014 (Local Time) from EHAM Reporting Station
Clear Clear  
Wind Chill: 36°   Ceiling: Unl
Heat Index: 43°   Visibility: 6mi
Dew Point: 36°   Wind: 14mph
Humidity: 76%   Direction: 110°ESE
Pressure: 29.94"   Gusts: NA
Location:  52.53°N, 4.71°E
Report Text: EHAM 261125Z 11012KT CAVOK 06/02 Q1014 NOSIG
Loading
Personal Weather Stations






























Interactive Weather Map New forecast layout! Learn more

10-Day Weather Forecast

Advertisements
Track Severe Weather on mobile